Archival Weather

Half Moon Bay

Half Moon Bay, California (KHAF)

Report from: Thursday, September 21, 2023 7:15 PM PDT
Current time: Tuesday, February 27, 2024 1:02 AM PST

Current weather – Weather history – Daily summaries
Weather forecast

Temperature16.0°C (60.8°F)
Dew point13.0°C (55.4°F)
Winds 7 kts (3.6 m/s, 8.1 mph) South (190°)
Visibility3 mi. (4.8 km)
Altimeter29.92 in.Hg (1013 mB)
Relative humidity82 %
Density altitude328 ft. (100 m)
Remarks Fully automated report
Automated weather observing station with precipitation discriminator
Flight conditions Marginal Visual Meteorological Conditions
Raw dataKHAF 220215Z AUTO 19007KT 3SM BR 16/13 A2992 RMK AO2
An error has occurred. This application may no longer respond until reloaded. Reload 🗙